Santiago, Dominican Republic

10:33 PM AST on September 04, 2015 (GMT -0400)
PUCMM Santiago | | Change Station
CLOSE
Current Station
Personal Weather Station
Location: Santiago De Los Caballeros, SANTIAGO
Elevation: 653 ft
Nearby Weather Stations

Elev 653 ft 19.44 °N, 70.68 °W | Updated 3 seconds ago

Partly Cloudy
Partly Cloudy
81.9 °F
Feels Like 89 °F
N
0.0
Wind Variable Wind from SE
Gusts 2.5 mph

Today
High -- | Low -- °F
--% Chance of Precip.
Yesterday
High -- | Low -- °F
Precip. -- in
6:28 AM 6:55 PM
Waning Gibbous, 53% visible
Pressure 29.98 in
Visibility 6.2 miles
Clouds Few 2100 ft
Heat Index 89 °F
Dew Point 76 °F
Humidity 83%
Rainfall 0.00 in
Snow Depth Not available.
UV 0.0 out of 12
Pollen Not available.
Air Quality Not available.
Flu Activity Not available.
METAR MDST 050200Z 16005KT 9999 FEW021 28/24 Q1015
Pressure 29.98 in
Visibility 6.2 miles
Clouds Few 2100 ft
Heat Index 89 °F
Dew Point 76 °F
Humidity 83%
Rainfall 0.00 in
Snow Depth Not available.
UV 0.0 out of 12
Pollen Not available.
Air Quality Not available.
Flu Activity Not available.
METAR MDST 050200Z 16005KT 9999 FEW021 28/24 Q1015

10-Day Weather Forecast

×

Almanac

Astronomy

Sep. 04, 2015 Rise Set
Actual Time
Civil Twilight
Nautical Twilight
Astronomical Twilight
Moon
Length of Visible Light
Length of Day
Tomorrow will be .
, % of the Moon is Illuminated

Today's Extremes

Country Highs Country Lows

Community

WunderPhotos

Upload Photos

1,852,393 photos uploaded!

WunderBlogs® & News

Nearby

Air Quality

  Air Quality AQ Index Pollutant
Not available.

Snow Depth

Station Depth Elevation

Earthquake Activity

City Distance Mag. Time & Date
Minimum magnitude displayed is 2.5.

Coastal Water Temperatures

Place Temperature

Stations

Nearby Weather Stations

Station Location Temp. Windchill Dew Point Humidity Wind Precip. Elev Updated Type